KBBW/BBW METAR and TAF weather

Enter ICAO airport designator
Station Type Date Time Source
KBBW METAR 2019/04/26 03:53 UTC NOAA

KBBW 260353Z AUTO 34005KT 10SM CLR 08/01 A3016 RMK AO2 SLP213 T00780006


Station Type Date Time Source
KBBW Decoded METAR 2019/04/26 03:53 UTC NOAA

BROKEN BOW MUNICIPAL AIRPORT, NE, United States (KBBW) 41-26N 099-38W
Apr 25, 2019 - 11:53 PM EDT / 2019.04.26 0353 UTC
Wind: from the NNW (340 degrees) at 6 MPH (5 KT):0
Visibility: 10 mile(s):0
Sky conditions: clear
Temperature: 46.0 F (7.8 C)
Dew Point: 33.1 F (0.6 C)
Relative Humidity: 60%
Pressure (altimeter): 30.16 in. Hg (1021 hPa)
ob: KBBW 260353Z AUTO 34005KT 10SM CLR 08/01 A3016 RMK AO2 SLP213 T00780006
cycle: 4

Station Type Date Time Source
KBBW TAF UTC NOAA

Error!

Example: see airport list